createdAt,value
2016-04-04T00:00:22.624Z,24.5
2016-04-04T00:01:20.456Z,24.5
2016-04-04T00:02:21.473Z,24.5
2016-04-04T00:03:19.243Z,24.5
2016-04-04T00:04:17.010Z,24.5
2016-04-04T00:05:14.904Z,24.5
2016-04-04T00:06:12.687Z,24.5
2016-04-04T00:07:10.347Z,24.5
2016-04-04T00:08:08.115Z,24.5
2016-04-04T00:09:05.898Z,24.5
2016-04-04T00:10:03.651Z,24.5
2016-04-04T00:11:01.498Z,24.5
2016-04-04T00:12:02.501Z,24.5
2016-04-04T00:13:00.284Z,24.5
2016-04-04T00:13:58.053Z,24.5
2016-04-04T00:14:55.822Z,24.5
2016-04-04T00:15:53.715Z,24.6
2016-04-04T00:16:51.372Z,24.6
2016-04-04T00:17:49.264Z,24.6
2016-04-04T00:18:47.032Z,24.6
2016-04-04T00:19:44.691Z,24.6
2016-04-04T00:20:42.522Z,24.6
2016-04-04T00:21:43.525Z,24.6
2016-04-04T00:22:41.309Z,24.6
2016-04-04T00:23:39.093Z,24.6
2016-04-04T00:24:36.846Z,24.6
2016-04-04T00:25:34.629Z,24.6
2016-04-04T00:26:32.398Z,24.6
2016-04-04T00:27:30.182Z,24.6
2016-04-04T00:28:27.950Z,24.6
2016-04-04T00:29:25.718Z,24.6
2016-04-04T00:30:23.549Z,24.6
2016-04-04T00:31:24.567Z,24.6
2016-04-04T00:32:22.460Z,24.6
2016-04-04T00:33:20.229Z,24.6
2016-04-04T00:34:17.888Z,24.6
2016-04-04T00:35:15.656Z,24.6
2016-04-04T00:36:13.596Z,24.6
2016-04-04T00:37:11.317Z,24.6
2016-04-04T00:38:08.976Z,24.6
2016-04-04T00:39:06.762Z,24.6
2016-04-04T00:40:04.591Z,24.6
2016-04-04T00:41:05.595Z,24.6
2016-04-04T00:42:03.378Z,24.6
2016-04-04T00:43:01.161Z,24.6
2016-04-04T00:43:58.914Z,24.6
2016-04-04T00:44:56.700Z,24.6
2016-04-04T00:45:54.467Z,24.6
2016-04-04T00:46:52.358Z,24.6
2016-04-04T00:47:50.017Z,24.6
2016-04-04T00:48:47.785Z,24.6
2016-04-04T00:49:45.631Z,24.6
2016-04-04T00:50:46.618Z,24.7
2016-04-04T00:51:44.433Z,24.7
2016-04-04T00:52:42.171Z,24.7
2016-04-04T00:53:39.939Z,24.7
2016-04-04T00:54:37.738Z,24.7
2016-04-04T00:55:39.288Z,24.7
2016-04-04T00:56:37.088Z,24.8
2016-04-04T00:57:38.669Z,24.8
2016-04-04T00:58:40.249Z,24.8
2016-04-04T00:59:41.987Z,24.8
2016-04-04T01:00:42.879Z,24.8
2016-04-04T01:01:44.460Z,24.8
2016-04-04T01:02:46.026Z,24.8
2016-04-04T01:03:47.607Z,24.8
2016-04-04T01:04:49.172Z,24.8
2016-04-04T01:05:50.753Z,24.8
2016-04-04T01:06:52.334Z,24.8
2016-04-04T01:07:53.899Z,24.8
2016-04-04T01:08:55.590Z,24.8
2016-04-04T01:09:57.107Z,24.8
2016-04-04T01:10:58.110Z,24.8
2016-04-04T01:11:59.693Z,24.8
2016-04-04T01:13:01.384Z,24.8
2016-04-04T01:14:02.839Z,24.8
2016-04-04T01:15:04.420Z,24.7
2016-04-04T01:16:06.001Z,24.7
2016-04-04T01:17:07.691Z,24.7
2016-04-04T01:18:09.241Z,24.7
2016-04-04T01:19:06.900Z,24.7
2016-04-04T01:20:04.746Z,24.7
2016-04-04T01:21:05.749Z,24.7
2016-04-04T01:22:03.627Z,24.7
2016-04-04T01:23:01.302Z,24.7
2016-04-04T01:23:59.180Z,24.7
2016-04-04T01:24:56.851Z,24.7
2016-04-04T01:25:54.619Z,24.7
2016-04-04T01:26:52.388Z,24.7
2016-04-04T01:27:50.171Z,24.7
2016-04-04T01:28:47.940Z,24.7
2016-04-04T01:29:45.770Z,24.7
2016-04-04T01:30:46.773Z,24.7
2016-04-04T01:31:44.557Z,24.7
2016-04-04T01:32:42.341Z,24.7
2016-04-04T01:33:40.110Z,24.7
2016-04-04T01:34:37.909Z,24.7
2016-04-04T01:35:35.662Z,24.7
2016-04-04T01:36:33.430Z,24.6
2016-04-04T01:37:31.199Z,24.7
2016-04-04T01:38:28.982Z,24.7
2016-04-04T01:39:26.813Z,24.7
2016-04-04T01:40:27.832Z,24.6
2016-04-04T01:41:25.615Z,24.6
2016-04-04T01:42:23.399Z,24.6
2016-04-04T01:43:21.276Z,24.6
2016-04-04T01:44:19.045Z,24.7
2016-04-04T01:45:16.704Z,24.6
2016-04-04T01:46:14.472Z,24.7
2016-04-04T01:47:12.241Z,24.6
2016-04-04T01:48:10.086Z,24.6
2016-04-04T01:49:07.855Z,24.6
2016-04-04T01:50:08.858Z,24.6
2016-04-04T01:51:06.626Z,24.7
2016-04-04T01:52:04.410Z,24.7
2016-04-04T01:53:02.210Z,24.7
2016-04-04T01:53:59.962Z,24.7
2016-04-04T01:54:57.727Z,24.7
2016-04-04T01:55:55.496Z,24.7
2016-04-04T01:56:53.280Z,24.7
2016-04-04T01:57:51.158Z,24.7
2016-04-04T01:58:48.879Z,24.7
2016-04-04T01:59:49.898Z,24.7
2016-04-04T02:00:47.780Z,24.7
2016-04-04T02:01:45.440Z,24.7
2016-04-04T02:02:43.224Z,24.8
2016-04-04T02:03:40.992Z,24.8
2016-04-04T02:04:38.791Z,24.8
2016-04-04T02:05:36.559Z,24.8
2016-04-04T02:06:34.343Z,24.8
2016-04-04T02:07:35.909Z,24.8
2016-04-04T02:08:33.739Z,24.8
2016-04-04T02:09:34.758Z,24.8
2016-04-04T02:10:32.511Z,24.8
2016-04-04T02:11:30.279Z,24.8
2016-04-04T02:12:28.062Z,24.8
2016-04-04T02:13:25.831Z,24.8
2016-04-04T02:14:23.615Z,24.8
2016-04-04T02:15:21.384Z,24.8
2016-04-04T02:16:19.183Z,24.8
2016-04-04T02:17:20.748Z,24.8
2016-04-04T02:18:22.375Z,24.9
2016-04-04T02:19:23.394Z,24.8
2016-04-04T02:20:24.959Z,24.8
2016-04-04T02:21:22.744Z,24.8
2016-04-04T02:22:24.325Z,24.8
2016-04-04T02:23:25.889Z,24.9
2016-04-04T02:24:27.486Z,24.8
2016-04-04T02:25:29.160Z,24.8
2016-04-04T02:26:30.616Z,24.8
2016-04-04T02:27:32.322Z,24.8
2016-04-04T02:28:33.841Z,24.8
2016-04-04T02:29:34.843Z,24.8
2016-04-04T02:30:36.408Z,24.8
2016-04-04T02:31:37.989Z,24.8
2016-04-04T02:32:39.601Z,24.8
2016-04-04T02:33:41.151Z,24.8
2016-04-04T02:34:42.716Z,24.8
2016-04-04T02:35:44.281Z,24.8
2016-04-04T02:36:45.862Z,24.8
2016-04-04T02:37:47.459Z,24.8
2016-04-04T02:38:49.070Z,24.8
2016-04-04T02:39:50.057Z,24.8
2016-04-04T02:40:47.857Z,24.8
2016-04-04T02:41:49.422Z,24.8
2016-04-04T02:42:51.003Z,24.8
2016-04-04T02:43:52.568Z,24.8
2016-04-04T02:44:50.478Z,24.8
2016-04-04T02:45:51.917Z,24.8
2016-04-04T02:46:53.498Z,24.8
2016-04-04T02:47:55.064Z,24.8
2016-04-04T02:48:56.816Z,24.8
2016-04-04T02:49:57.709Z,24.8
2016-04-04T02:50:59.289Z,24.8
2016-04-04T02:52:00.855Z,24.8
2016-04-04T02:53:02.436Z,24.8
2016-04-04T02:54:04.019Z,24.8
2016-04-04T02:55:05.616Z,24.8
2016-04-04T02:56:07.290Z,24.8
2016-04-04T02:57:08.747Z,24.8
2016-04-04T02:58:10.436Z,24.8
2016-04-04T02:59:12.049Z,24.8
2016-04-04T03:00:12.941Z,24.8
2016-04-04T03:01:10.711Z,24.8
2016-04-04T03:02:08.479Z,24.8
2016-04-04T03:03:06.262Z,24.8
2016-04-04T03:04:04.043Z,24.8
2016-04-04T03:05:01.922Z,24.8
2016-04-04T03:05:59.612Z,24.7
2016-04-04T03:07:01.146Z,24.7
2016-04-04T03:07:58.922Z,24.7
2016-04-04T03:08:56.754Z,24.8
2016-04-04T03:09:57.772Z,24.8
2016-04-04T03:10:55.540Z,24.7
2016-04-04T03:11:53.355Z,24.8
2016-04-04T03:12:51.093Z,24.8
2016-04-04T03:13:48.876Z,24.8
2016-04-04T03:15:44.413Z,24.8
2016-04-04T03:16:42.196Z,24.8
2016-04-04T03:17:39.965Z,24.8
2016-04-04T03:18:37.796Z,24.8
2016-04-04T03:19:38.924Z,24.8
2016-04-04T03:20:36.582Z,24.8
2016-04-04T03:21:34.351Z,24.8
2016-04-04T03:22:32.135Z,24.8
2016-04-04T03:23:30.012Z,24.8
2016-04-04T03:24:27.797Z,24.8
2016-04-04T03:25:25.440Z,24.8
2016-04-04T03:26:23.239Z,24.8
2016-04-04T03:27:20.992Z,24.8
2016-04-04T03:28:18.823Z,24.8
2016-04-04T03:29:19.825Z,24.8
2016-04-04T03:30:17.609Z,24.8
2016-04-04T03:31:15.394Z,24.8
2016-04-04T03:32:16.958Z,24.8
2016-04-04T03:33:14.727Z,24.8
2016-04-04T03:34:12.620Z,24.8
2016-04-04T03:35:10.280Z,24.8
2016-04-04T03:36:08.188Z,24.8
2016-04-04T03:37:09.628Z,24.8
2016-04-04T03:38:07.475Z,24.8
2016-04-04T03:39:08.588Z,24.8
2016-04-04T03:40:06.261Z,24.8
2016-04-04T03:41:04.011Z,24.8
2016-04-04T03:42:01.795Z,24.8
2016-04-04T03:42:59.689Z,24.8
2016-04-04T03:43:57.332Z,24.8
2016-04-04T03:44:55.100Z,24.8
2016-04-04T03:45:52.885Z,24.8
2016-04-04T03:46:50.669Z,24.8
2016-04-04T03:47:52.312Z,24.8
2016-04-04T03:48:53.314Z,24.8
2016-04-04T03:49:54.896Z,24.8
2016-04-04T03:50:56.460Z,24.8
2016-04-04T03:51:58.134Z,24.9
2016-04-04T03:52:55.793Z,24.9
2016-04-04T03:53:53.718Z,24.8
2016-04-04T03:54:55.268Z,24.9
2016-04-04T03:55:52.926Z,24.8
2016-04-04T03:56:50.695Z,24.9
2016-04-04T03:57:48.526Z,24.8
2016-04-04T03:58:49.560Z,24.8
2016-04-04T03:59:51.156Z,24.9
2016-04-04T04:00:52.690Z,24.8
2016-04-04T04:01:50.584Z,24.8
2016-04-04T04:02:48.242Z,24.9
2016-04-04T04:03:46.027Z,24.8
2016-04-04T04:04:47.576Z,24.9
2016-04-04T04:05:45.391Z,24.9
2016-04-04T04:06:46.973Z,24.8
2016-04-04T04:07:48.585Z,24.9
2016-04-04T04:08:49.587Z,24.9
2016-04-04T04:09:51.153Z,24.9
2016-04-04T04:10:48.922Z,24.9
2016-04-04T04:11:46.720Z,24.9
2016-04-04T04:12:48.286Z,24.9
2016-04-04T04:13:49.992Z,24.9
2016-04-04T04:14:51.448Z,24.9
2016-04-04T04:15:53.013Z,24.9
2016-04-04T04:16:54.594Z,24.9
2016-04-04T04:17:56.222Z,24.9
2016-04-04T04:18:57.364Z,24.9
2016-04-04T04:19:58.821Z,24.9
2016-04-04T04:21:00.369Z,24.9
2016-04-04T04:21:58.280Z,24.9
2016-04-04T04:22:59.860Z,24.9
2016-04-04T04:24:01.299Z,24.8
2016-04-04T04:24:59.069Z,24.8
2016-04-04T04:25:56.837Z,24.8
2016-04-04T04:26:54.621Z,24.8
2016-04-04T04:27:52.451Z,24.9
2016-04-04T04:28:53.611Z,24.9
2016-04-04T04:29:55.035Z,24.9
2016-04-04T04:30:52.818Z,24.9
2016-04-04T04:31:54.399Z,24.9
2016-04-04T04:32:52.183Z,24.9
2016-04-04T04:33:53.734Z,24.9
2016-04-04T04:34:51.626Z,24.9
2016-04-04T04:35:49.285Z,24.9
2016-04-04T04:36:47.195Z,24.8
2016-04-04T04:37:48.697Z,24.9
2016-04-04T04:38:49.700Z,24.9
2016-04-04T04:39:47.483Z,24.9
2016-04-04T04:40:49.190Z,24.9
2016-04-04T04:41:50.645Z,24.9
2016-04-04T04:42:52.211Z,24.8
2016-04-04T04:43:53.775Z,24.9
2016-04-04T04:44:51.559Z,24.9
2016-04-04T04:45:53.234Z,24.9
2016-04-04T04:46:50.908Z,24.9
2016-04-04T04:47:48.739Z,24.9
2016-04-04T04:48:49.758Z,24.9
2016-04-04T04:49:51.339Z,24.9
2016-04-04T04:50:52.904Z,24.9
2016-04-04T04:51:54.485Z,24.9
2016-04-04T04:52:56.175Z,24.9
2016-04-04T04:53:57.615Z,24.9
2016-04-04T04:54:55.540Z,24.9
2016-04-04T04:55:57.088Z,24.9
2016-04-04T04:56:54.763Z,24.9
2016-04-04T04:57:56.391Z,24.9
2016-04-04T04:58:57.394Z,24.9
2016-04-04T04:59:55.178Z,24.9
2016-04-04T05:00:56.759Z,24.9
2016-04-04T05:01:58.309Z,24.9
2016-04-04T05:02:56.107Z,24.9
2016-04-04T05:03:57.674Z,24.9
2016-04-04T05:04:55.457Z,24.9
2016-04-04T05:05:57.023Z,24.9
2016-04-04T05:06:54.806Z,24.9
2016-04-04T05:07:52.637Z,24.9
2016-04-04T05:08:53.656Z,24.9
2016-04-04T05:09:51.408Z,24.9
2016-04-04T05:10:49.176Z,24.9
2016-04-04T05:11:46.960Z,24.9
2016-04-04T05:12:44.729Z,24.9
2016-04-04T05:13:42.512Z,24.9
2016-04-04T05:14:40.280Z,24.9
2016-04-04T05:15:38.175Z,24.9
2016-04-04T05:16:35.850Z,24.9
2016-04-04T05:17:37.461Z,24.9
2016-04-04T05:18:38.494Z,24.9
2016-04-04T05:19:40.092Z,24.9
2016-04-04T05:20:37.828Z,24.9
2016-04-04T05:21:35.627Z,24.9
2016-04-04T05:22:37.302Z,24.9
2016-04-04T05:23:34.946Z,24.9
2016-04-04T05:24:32.730Z,24.9
2016-04-04T05:25:30.623Z,24.9
2016-04-04T05:26:28.271Z,24.9
2016-04-04T05:27:26.108Z,24.9
2016-04-04T05:28:27.146Z,24.9
2016-04-04T05:29:24.899Z,24.9
2016-04-04T05:30:22.793Z,24.9
2016-04-04T05:31:20.436Z,24.9
2016-04-04T05:32:18.220Z,24.9
2016-04-04T05:33:15.988Z,24.9
2016-04-04T05:34:13.772Z,24.9
2016-04-04T05:35:11.696Z,25
2016-04-04T05:36:13.137Z,24.9
2016-04-04T05:37:14.874Z,25
2016-04-04T05:38:15.784Z,24.9
2016-04-04T05:39:17.442Z,25
2016-04-04T05:40:15.117Z,24.9
2016-04-04T05:41:12.900Z,24.9
2016-04-04T05:42:14.590Z,24.9
2016-04-04T05:43:16.156Z,24.9
2016-04-04T05:44:13.799Z,24.9
2016-04-04T05:45:11.599Z,24.9
2016-04-04T05:46:13.164Z,25
2016-04-04T05:47:14.776Z,25
2016-04-04T05:48:15.920Z,24.9
2016-04-04T05:49:13.703Z,25
2016-04-04T05:50:15.175Z,25
2016-04-04T05:51:16.724Z,25
2016-04-04T05:52:14.492Z,25
2016-04-04T05:53:12.401Z,25
2016-04-04T05:54:13.873Z,25
2016-04-04T05:55:15.454Z,25.1
2016-04-04T05:56:17.002Z,25
2016-04-04T05:57:18.647Z,25.1
2016-04-04T05:58:19.650Z,25.1
2016-04-04T05:59:21.230Z,25.1
2016-04-04T06:00:22.810Z,25.1
2016-04-04T06:01:24.501Z,25.1
2016-04-04T06:02:25.941Z,25.1
2016-04-04T06:03:27.521Z,25.2
2016-04-04T06:04:29.103Z,25.2
2016-04-04T06:05:30.402Z,25.3
2016-04-04T06:06:31.734Z,25.3
2016-04-04T06:07:33.111Z,25.3
2016-04-04T06:08:34.239Z,25.3
2016-04-04T06:09:35.445Z,25.3
2016-04-04T06:10:36.775Z,25.3
2016-04-04T06:11:38.075Z,25.3
2016-04-04T06:12:39.406Z,25.3
2016-04-04T06:13:40.720Z,25.3
2016-04-04T06:14:42.192Z,25.3
2016-04-04T06:15:43.367Z,25.3
2016-04-04T06:16:44.681Z,25.3
2016-04-04T06:17:46.075Z,25.3
2016-04-04T06:18:47.062Z,25.3
2016-04-04T06:19:48.425Z,25.3
2016-04-04T06:20:49.708Z,25.3
2016-04-04T06:21:51.024Z,25.3
2016-04-04T06:22:52.355Z,25.3
2016-04-04T06:23:53.669Z,25.3
2016-04-04T06:24:55.110Z,25.3
2016-04-04T06:25:56.440Z,25.2
2016-04-04T06:26:57.630Z,25.2
2016-04-04T06:27:59.024Z,25.2
2016-04-04T06:29:00.026Z,25.2
2016-04-04T06:30:01.608Z,25.2
2016-04-04T06:31:03.173Z,25.2
2016-04-04T06:32:04.769Z,25.2
2016-04-04T06:33:06.443Z,25.2
2016-04-04T06:34:07.916Z,25.2
2016-04-04T06:35:09.498Z,25.2
2016-04-04T06:36:11.174Z,25.1
2016-04-04T06:37:12.754Z,25.1
2016-04-04T06:38:14.382Z,25.1
2016-04-04T06:39:15.275Z,25.1
2016-04-04T06:40:16.840Z,25.1
2016-04-04T06:41:18.421Z,25.1
2016-04-04T06:42:20.001Z,25.1
2016-04-04T06:43:21.567Z,25.1
2016-04-04T06:44:19.336Z,25.1
2016-04-04T06:45:17.104Z,25.1
2016-04-04T06:46:14.872Z,25
2016-04-04T06:47:12.640Z,25
2016-04-04T06:48:10.472Z,25
2016-04-04T06:49:11.614Z,25
2016-04-04T06:50:09.255Z,25
2016-04-04T06:51:07.023Z,25
2016-04-04T06:52:04.822Z,25
2016-04-04T06:53:02.575Z,25
2016-04-04T06:54:00.360Z,24.9
2016-04-04T06:54:58.128Z,24.9
2016-04-04T06:55:55.911Z,24.9
2016-04-04T06:56:53.680Z,24.9
2016-04-04T06:57:51.511Z,24.9
2016-04-04T06:58:52.638Z,24.9
2016-04-04T06:59:50.282Z,24.9
2016-04-04T07:00:48.055Z,24.9
2016-04-04T07:01:45.871Z,24.9
2016-04-04T07:02:43.717Z,24.9
2016-04-04T07:03:41.532Z,24.9
2016-04-04T07:04:39.190Z,24.9
2016-04-04T07:05:37.226Z,24.9
2016-04-04T07:06:35.212Z,25
2016-04-04T07:07:33.043Z,24.9
2016-04-04T07:08:34.045Z,25
2016-04-04T07:09:32.189Z,25
2016-04-04T07:10:29.847Z,25
2016-04-04T07:11:27.881Z,25
2016-04-04T07:12:25.650Z,25
2016-04-04T07:13:23.417Z,25
2016-04-04T07:14:21.203Z,25
2016-04-04T07:15:18.986Z,25
2016-04-04T07:16:16.738Z,25.1
2016-04-04T07:17:14.569Z,25
2016-04-04T07:18:15.588Z,25.1
2016-04-04T07:19:13.356Z,25.1
2016-04-04T07:20:11.171Z,25.1
2016-04-04T07:21:08.905Z,25.2
2016-04-04T07:22:06.706Z,25.2
2016-04-04T07:23:04.458Z,25.2
2016-04-04T07:24:02.352Z,25.2
2016-04-04T07:25:00.010Z,25.2
2016-04-04T07:25:57.888Z,25.3
2016-04-04T07:26:55.610Z,25.3
2016-04-04T07:27:56.613Z,25.3
2016-04-04T07:28:54.505Z,25.3
2016-04-04T07:29:52.164Z,25.3
2016-04-04T07:30:49.933Z,25.3
2016-04-04T07:31:47.717Z,25.3
2016-04-04T07:32:45.485Z,25.3
2016-04-04T07:33:43.253Z,25.3
2016-04-04T07:34:41.038Z,25.4
2016-04-04T07:35:38.914Z,25.4
2016-04-04T07:36:36.637Z,25.4
2016-04-04T07:37:37.654Z,25.4
2016-04-04T07:38:35.423Z,25.4
2016-04-04T07:39:33.192Z,25.4
2016-04-04T07:40:31.085Z,25.4
2016-04-04T07:41:28.743Z,25.4
2016-04-04T07:42:26.511Z,25.5
2016-04-04T07:43:24.296Z,25.5
2016-04-04T07:44:22.065Z,25.4
2016-04-04T07:45:19.958Z,25.5
2016-04-04T07:46:17.788Z,25.5
2016-04-04T07:47:18.681Z,25.5
2016-04-04T07:48:16.450Z,25.5
2016-04-04T07:49:14.219Z,25.5
2016-04-04T07:50:12.017Z,25.4
2016-04-04T07:51:09.767Z,25.4
2016-04-04T07:52:07.552Z,25.4
2016-04-04T07:53:05.366Z,25.4
2016-04-04T07:54:03.089Z,25.4
2016-04-04T07:55:00.872Z,25.4
2016-04-04T07:55:58.812Z,25.4
2016-04-04T07:56:59.706Z,25.3
2016-04-04T07:57:57.474Z,25.3
2016-04-04T07:58:55.258Z,25.3
2016-04-04T07:59:53.026Z,25.3
2016-04-04T08:00:50.794Z,25.3
2016-04-04T08:01:48.562Z,25.3
2016-04-04T08:02:46.347Z,25.3
2016-04-04T08:03:44.240Z,25.3
2016-04-04T08:04:41.899Z,25.3
2016-04-04T08:05:39.715Z,25.3
2016-04-04T08:06:40.749Z,25.3
2016-04-04T08:07:38.517Z,25.2
2016-04-04T08:08:36.331Z,25.2
2016-04-04T08:09:34.053Z,25.3
2016-04-04T08:10:31.837Z,25.2
2016-04-04T08:11:29.606Z,25.2
2016-04-04T08:12:27.639Z,25.1
2016-04-04T08:13:25.658Z,25.1
2016-04-04T08:14:23.691Z,25.1
2016-04-04T08:15:21.772Z,25
2016-04-04T08:16:22.791Z,25
2016-04-04T08:17:20.809Z,25
2016-04-04T08:18:18.843Z,25
2016-04-04T08:19:16.877Z,25
2016-04-04T08:20:15.161Z,25
2016-04-04T08:21:13.430Z,25
2016-04-04T08:22:11.463Z,25
2016-04-04T08:23:09.760Z,24.9
2016-04-04T08:24:08.138Z,24.9
2016-04-04T08:25:06.125Z,24.9
2016-04-04T08:26:07.222Z,24.9
2016-04-04T08:27:05.021Z,24.9
2016-04-04T08:28:06.477Z,24.8
2016-04-04T08:29:07.791Z,24.8
2016-04-04T08:30:09.123Z,24.7
2016-04-04T08:31:10.563Z,24.7
2016-04-04T08:32:11.503Z,24.7
2016-04-04T08:33:12.311Z,24.7
2016-04-04T08:34:13.239Z,24.8
2016-04-04T08:35:14.355Z,24.8
2016-04-04T08:36:15.346Z,24.8
2016-04-04T08:37:16.149Z,24.8
2016-04-04T08:38:16.834Z,24.9
2016-04-04T08:39:17.770Z,24.9
2016-04-04T08:40:18.580Z,24.9
2016-04-04T08:41:19.126Z,25
2016-04-04T08:42:19.562Z,25
2016-04-04T08:44:20.548Z,25.1
2016-04-04T08:45:20.535Z,25.1
2016-04-04T08:46:21.536Z,25.1
2016-04-04T08:47:21.332Z,25.1
2016-04-04T08:48:21.132Z,25.1
2016-04-04T08:49:20.930Z,25.1
2016-04-04T08:50:20.729Z,25.1
2016-04-04T08:51:20.528Z,25.1
2016-04-04T08:52:20.452Z,25.1
2016-04-04T08:53:20.141Z,25.1
2016-04-04T08:54:19.676Z,25.1
2016-04-04T08:56:20.289Z,25.1
2016-04-04T08:57:19.838Z,25.1
2016-04-04T08:58:19.388Z,25.1
2016-04-04T08:59:18.672Z,25.1
2016-04-04T09:00:18.347Z,25.1
2016-04-04T09:01:17.771Z,25.1
2016-04-04T09:02:17.320Z,25.2
2016-04-04T09:03:16.870Z,25.2
2016-04-04T09:04:16.529Z,25.1
2016-04-04T09:05:15.766Z,25.1
2016-04-04T09:06:16.784Z,25.1
2016-04-04T09:07:16.068Z,25.1
2016-04-04T09:08:15.368Z,25.1
2016-04-04T09:09:14.652Z,25.2
2016-04-04T09:10:13.951Z,25.2
2016-04-04T09:11:13.251Z,25.2
2016-04-04T09:12:12.534Z,25.2
2016-04-04T09:13:11.831Z,25.2
2016-04-04T09:14:11.225Z,25.3
2016-04-04T09:15:10.462Z,25.3
2016-04-04T09:16:11.481Z,25.3
2016-04-04T09:17:10.764Z,25.3
2016-04-04T09:18:10.189Z,25.3
2016-04-04T09:19:09.348Z,25.4
2016-04-04T09:20:08.662Z,25.5
2016-04-04T09:21:07.931Z,25.6
2016-04-04T09:22:07.231Z,25.7
2016-04-04T09:23:06.639Z,25.7
2016-04-04T09:24:05.814Z,25.7
2016-04-04T09:25:05.192Z,25.8
2016-04-04T09:26:06.289Z,25.8
2016-04-04T09:27:05.463Z,25.9
2016-04-04T09:28:04.763Z,25.9
2016-04-04T09:30:03.361Z,26
2016-04-04T09:31:02.646Z,26
2016-04-04T09:32:02.039Z,26
2016-04-04T09:33:01.354Z,26
2016-04-04T09:34:00.638Z,26
2016-04-04T09:34:59.860Z,26
2016-04-04T09:36:00.877Z,26
2016-04-04T09:37:00.177Z,26
2016-04-04T09:37:59.461Z,25.9
2016-04-04T09:38:58.761Z,25.9
2016-04-04T09:39:58.170Z,25.8
2016-04-04T09:40:57.360Z,25.8
2016-04-04T09:41:56.643Z,25.8
2016-04-04T09:42:56.053Z,25.8
2016-04-04T09:43:55.227Z,25.7
2016-04-04T09:44:54.574Z,25.7
2016-04-04T09:45:55.702Z,25.7
2016-04-04T09:46:54.876Z,25.7
2016-04-04T09:47:54.284Z,25.6
2016-04-04T09:48:53.460Z,25.5
2016-04-04T09:49:52.760Z,25.5
2016-04-04T09:50:52.309Z,25.5
2016-04-04T09:51:51.842Z,25.4
2016-04-04T09:52:51.408Z,25.3
2016-04-04T09:53:51.300Z,25.3
2016-04-04T09:54:51.053Z,25.3
2016-04-04T09:55:52.057Z,25.3
2016-04-04T09:56:51.872Z,25.3
2016-04-04T09:57:51.672Z,25.2
2016-04-04T09:58:51.455Z,25.3
2016-04-04T09:59:51.255Z,25.3
2016-04-04T10:00:51.070Z,25.2
2016-04-04T10:01:50.855Z,25.3
2016-04-04T10:02:50.654Z,25.3
2016-04-04T10:03:50.453Z,25.3
2016-04-04T10:04:50.315Z,25.3
2016-04-04T10:05:51.318Z,25.3
2016-04-04T10:06:51.118Z,25.3
2016-04-04T10:07:50.933Z,25.3
2016-04-04T10:08:50.732Z,25.4
2016-04-04T10:09:50.537Z,25.4
2016-04-04T10:10:50.336Z,25.4
2016-04-04T10:11:50.246Z,25.5
2016-04-04T10:12:50.060Z,25.5
2016-04-04T10:13:49.735Z,25.5
2016-04-04T10:14:49.581Z,25.6
2016-04-04T10:15:50.709Z,25.6
2016-04-04T10:16:50.399Z,25.7
2016-04-04T10:17:50.199Z,25.7
2016-04-04T10:18:49.998Z,25.7
2016-04-04T10:19:49.829Z,25.7
2016-04-04T10:20:49.597Z,25.7
2016-04-04T10:21:49.412Z,25.7
2016-04-04T10:22:49.197Z,25.7
2016-04-04T10:23:49.262Z,25.7
2016-04-04T10:24:49.483Z,25.7
2016-04-04T10:25:50.377Z,25.7
2016-04-04T10:26:50.551Z,25.7
2016-04-04T10:27:50.742Z,25.7
2016-04-04T10:28:51.056Z,25.6
2016-04-04T10:29:51.356Z,25.6
2016-04-04T10:30:51.671Z,25.6
2016-04-04T10:31:51.971Z,25.6
2016-04-04T10:32:52.285Z,25.5
2016-04-04T10:33:52.586Z,25.5
2016-04-04T10:34:53.198Z,25.5
2016-04-04T10:35:54.216Z,25.4
2016-04-04T10:36:54.781Z,25.4
2016-04-04T10:37:55.705Z,25.3
2016-04-04T10:38:56.395Z,25.3
2016-04-04T10:39:57.210Z,25.2
2016-04-04T10:40:58.043Z,25.2
2016-04-04T10:41:58.966Z,25.2
2016-04-04T10:42:59.907Z,25.1
2016-04-04T10:44:00.971Z,25.1
2016-04-04T10:45:02.099Z,25.1
2016-04-04T10:46:03.227Z,25.1
2016-04-04T10:47:04.449Z,25.1
2016-04-04T10:48:05.873Z,25.1
2016-04-04T10:49:07.079Z,25.1
2016-04-04T10:50:08.394Z,25.1
2016-04-04T10:51:09.725Z,25.2
2016-04-04T10:52:11.040Z,25.2
2016-04-04T10:53:12.481Z,25.2
2016-04-04T10:54:13.670Z,25.3
2016-04-04T10:55:15.175Z,25.3
2016-04-04T10:56:16.178Z,25.3
2016-04-04T10:57:17.134Z,25.4
2016-04-04T10:58:18.200Z,25.4
2016-04-04T10:59:19.264Z,25.4
2016-04-04T11:00:20.346Z,25.4
2016-04-04T11:01:21.520Z,25.5
2016-04-04T11:02:22.492Z,25.5
2016-04-04T11:03:23.666Z,25.5
2016-04-04T11:04:24.607Z,25.6
2016-04-04T11:05:25.734Z,25.6
2016-04-04T11:06:26.738Z,25.6
2016-04-04T11:07:27.802Z,25.7
2016-04-04T11:08:28.627Z,25.7
2016-04-04T11:09:29.692Z,25.7
2016-04-04T11:10:30.507Z,25.7
2016-04-04T11:11:31.322Z,25.8
2016-04-04T11:12:32.137Z,25.8
2016-04-04T11:13:32.968Z,25.8
2016-04-04T11:14:33.768Z,25.8
2016-04-04T11:15:34.630Z,25.9
2016-04-04T11:16:35.633Z,25.9
2016-04-04T11:17:36.448Z,25.8
2016-04-04T11:18:37.264Z,25.9
2016-04-04T11:19:38.078Z,25.9
2016-04-04T11:20:38.894Z,25.9
2016-04-04T11:21:39.709Z,25.8
2016-04-04T11:22:40.525Z,25.8
2016-04-04T11:23:41.339Z,25.8
2016-04-04T11:24:42.155Z,25.8
2016-04-04T11:25:43.017Z,25.7
2016-04-04T11:26:44.035Z,25.8
2016-04-04T11:27:44.866Z,25.7
2016-04-04T11:28:45.650Z,25.7
2016-04-04T11:29:46.465Z,25.7
2016-04-04T11:30:47.280Z,25.7
2016-04-04T11:31:48.095Z,25.6
2016-04-04T11:32:49.160Z,25.5
2016-04-04T11:33:50.225Z,25.6
2016-04-04T11:34:51.415Z,25.5
2016-04-04T11:35:52.418Z,25.5
2016-04-04T11:36:53.436Z,25.5
2016-04-04T11:37:54.751Z,25.5
2016-04-04T11:38:56.088Z,25.4
2016-04-04T11:39:57.403Z,25.4
2016-04-04T11:40:58.718Z,25.4
2016-04-04T11:42:00.033Z,25.3
2016-04-04T11:43:01.364Z,25.3
2016-04-04T11:44:02.679Z,25.3
2016-04-04T11:45:03.994Z,25.3
2016-04-04T11:46:05.372Z,25.3
2016-04-04T11:47:06.389Z,25.3
2016-04-04T11:48:07.830Z,25.3
2016-04-04T11:49:09.036Z,25.3
2016-04-04T11:50:10.366Z,25.3
2016-04-04T11:51:11.666Z,25.3
2016-04-04T11:52:12.997Z,25.3
2016-04-04T11:53:14.313Z,25.3
2016-04-04T11:54:15.631Z,25.3
2016-04-04T11:55:16.977Z,25.3
2016-04-04T11:56:18.324Z,25.3
2016-04-04T11:57:19.342Z,25.3
2016-04-04T11:58:20.688Z,25.4
2016-04-04T11:59:21.988Z,25.4
2016-04-04T12:00:23.427Z,25.4
2016-04-04T12:01:24.634Z,25.4
2016-04-04T12:02:25.949Z,25.5
2016-04-04T12:03:27.264Z,25.5
2016-04-04T12:05:30.034Z,25.5
2016-04-04T12:06:31.287Z,25.5
2016-04-04T12:07:32.306Z,25.5
2016-04-04T12:08:33.745Z,25.5
2016-04-04T12:09:35.062Z,25.5
2016-04-04T12:10:36.267Z,25.6
2016-04-04T12:11:37.582Z,25.5
2016-04-04T12:12:38.914Z,25.5
2016-04-04T12:13:40.229Z,25.5
2016-04-04T12:14:41.544Z,25.5
2016-04-04T12:15:42.875Z,25.6
2016-04-04T12:16:44.252Z,25.6
2016-04-04T12:17:45.270Z,25.5
2016-04-04T12:18:46.586Z,25.5
2016-04-04T12:19:47.916Z,25.5
2016-04-04T12:20:49.232Z,25.5
2016-04-04T12:21:50.547Z,25.5
2016-04-04T12:22:51.862Z,25.5
2016-04-04T12:23:53.194Z,25.4
2016-04-04T12:24:54.508Z,25.4
2016-04-04T12:25:55.839Z,25.4
2016-04-04T12:26:57.217Z,25.4
2016-04-04T12:27:58.219Z,25.3
2016-04-04T12:28:59.550Z,25.4
2016-04-04T12:30:00.849Z,25.3
2016-04-04T12:31:02.180Z,25.3
2016-04-04T12:32:03.761Z,25.3
2016-04-04T12:33:05.326Z,25.3
2016-04-04T12:34:06.907Z,25.3
2016-04-04T12:35:08.487Z,25.2
2016-04-04T12:36:10.053Z,25.3
2016-04-04T12:37:11.821Z,25.2
2016-04-04T12:38:12.699Z,25.2
2016-04-04T12:39:14.279Z,25.2
2016-04-04T12:40:15.848Z,25.1
2016-04-04T12:41:17.429Z,25.2
2016-04-04T12:42:18.995Z,25.1
2016-04-04T12:43:16.778Z,25.2
2016-04-04T12:44:14.528Z,25.2
2016-04-04T12:45:12.312Z,25.2
2016-04-04T12:46:10.205Z,25.1
2016-04-04T12:47:07.911Z,25.2
2016-04-04T12:48:08.929Z,25.2
2016-04-04T12:49:06.713Z,25.2
2016-04-04T12:50:04.466Z,25.2
2016-04-04T12:51:02.375Z,25.2
2016-04-04T12:52:00.127Z,25.3
2016-04-04T12:52:57.911Z,25.3
2016-04-04T12:53:55.554Z,25.3
2016-04-04T12:54:53.354Z,25.3
2016-04-04T12:55:55.060Z,25.2
2016-04-04T12:56:56.546Z,25.3
2016-04-04T12:57:57.566Z,25.3
2016-04-04T12:58:59.130Z,25.3
2016-04-04T13:00:00.711Z,25.3
2016-04-04T13:01:02.293Z,25.3
2016-04-04T13:02:03.858Z,25.3
2016-04-04T13:03:05.563Z,25.3
2016-04-04T13:04:07.019Z,25.3
2016-04-04T13:05:08.584Z,25.3
2016-04-04T13:06:10.165Z,25.3
2016-04-04T13:07:11.793Z,25.3
2016-04-04T13:08:12.811Z,25.4
2016-04-04T13:09:14.377Z,25.4
2016-04-04T13:10:15.957Z,25.4
2016-04-04T13:11:17.541Z,25.3
2016-04-04T13:12:19.106Z,25.3
2016-04-04T13:13:20.671Z,25.3
2016-04-04T13:14:22.251Z,25.4
2016-04-04T13:15:23.833Z,25.3
2016-04-04T13:16:25.398Z,25.3
2016-04-04T13:17:27.041Z,25.3
2016-04-04T13:18:28.044Z,25.3
2016-04-04T13:19:29.625Z,25.4
2016-04-04T13:20:31.314Z,25.4
2016-04-04T13:21:32.770Z,25.3
2016-04-04T13:22:34.351Z,25.3